logo
Search for airport 
image banner adimage banner adimage banner ad
image banner ad

EHKV - K14-Fa-1C (Oil Platform)

Located in , Netherlands

ICAO - , IATA -

Data provided by Airmate  

General information

Coordinates: N53°16'7" E3°37'35"
Elevation is feet MSL.
 
View others Airports in Noord-Holland

Operational data

Special qualification required
Current time UTC:
Current local time:
Weather
METAR: EHKV 220325Z AUTO 27011KT 9999 NSC 15/13 Q1009
View NOTAMs / SUP AIP / TFR affecting this airport [VIEW]
Communications frequencies: [VIEW]

Runways:

Airport contact information

Address: Netherlands

Satellite view of EHKV